Time;durP1;ratioP1;P1;durP2;ratioP2;P2;SDS_P1;SDS_P2;PMS_P1;PMS_P2;Temp;Humidity;BMP_temperature;BMP_pressure;BME280_temperature;BME280_humidity;BME280_pressure;Samples;Min_cycle;Max_cycle;Signal;HPM_P1;HPM_P2
2021/12/17 00:04:49;;;;;;;112.22;20.98;;;8.10;99.90;;;;;;5054790;28;20049;-89
2021/12/17 00:07:15;;;;;;;106.45;19.20;;;8.00;99.90;;;;;;5037958;28;20045;-90
2021/12/17 00:09:43;;;;;;;85.93;18.63;;;8.00;99.90;;;;;;5037269;28;20529;-90
2021/12/17 00:12:14;;;;;;;100.70;19.13;;;8.20;99.90;;;;;;5037609;28;20044;-90
2021/12/17 00:14:43;;;;;;;94.95;18.00;;;8.00;99.90;;;;;;5037649;28;20478;-90
2021/12/17 00:17:13;;;;;;;105.78;16.70;;;8.00;99.90;;;;;;5037790;28;20055;-91
2021/12/17 00:20:04;;;;;;;91.77;16.10;;;8.00;99.90;;;;;;5037762;28;20098;-90
2021/12/17 00:52:29;;;;;;;205.30;20.15;;;7.90;99.90;;;;;;5036854;28;20144;-90
2021/12/17 00:54:54;;;;;;;223.55;20.25;;;7.90;99.90;;;;;;5036864;28;20513;-90
2021/12/17 00:57:23;;;;;;;219.35;20.50;;;7.90;99.90;;;;;;5037193;28;20052;-90
2021/12/17 00:59:51;;;;;;;151.18;19.52;;;7.90;99.90;;;;;;5036993;28;20049;-90
2021/12/17 01:02:31;;;;;;;195.70;20.23;;;7.90;99.90;;;;;;5036852;28;20091;-91
2021/12/17 01:05:00;;;;;;;208.90;20.25;;;7.90;99.90;;;;;;5036634;28;20195;-90
2021/12/17 01:07:31;;;;;;;166.10;19.15;;;7.90;99.90;;;;;;5036755;28;20043;-90
2021/12/17 01:09:57;;;;;;;135.40;17.02;;;7.80;99.90;;;;;;5036730;28;20053;-91
2021/12/17 01:12:24;;;;;;;144.52;18.13;;;7.90;99.90;;;;;;5036541;28;20122;-90
2021/12/17 01:14:52;;;;;;;136.13;17.08;;;7.90;99.90;;;;;;5036655;28;20136;-90
2021/12/17 01:17:20;;;;;;;165.18;16.77;;;7.90;99.90;;;;;;5036557;28;20048;-90
2021/12/17 01:23:30;;;;;;;191.32;17.60;;;7.80;99.90;;;;;;5036612;28;20049;-90
2021/12/17 01:35:20;;;;;;;137.23;18.27;;;7.90;99.90;;;;;;5030827;28;20049;-90
2021/12/17 01:36:27;;;;;;;131.13;18.42;;;8.00;99.90;;;;;;5035973;28;20041;-90
2021/12/17 01:44:14;;;;;;;93.85;15.77;;;7.90;99.90;;;;;;5035852;28;20045;-89
2021/12/17 01:46:42;;;;;;;93.50;15.85;;;7.90;99.90;;;;;;5035813;28;20514;-93
2021/12/17 02:00:07;;;;;;;75.65;14.80;;;7.80;99.90;;;;;;5035765;28;20051;-90
2021/12/17 02:02:40;;;;;;;89.80;14.23;;;7.80;99.90;;;;;;5035698;28;20052;-90
2021/12/17 02:05:07;;;;;;;105.30;14.65;;;8.00;99.90;;;;;;5035717;28;20060;-90
2021/12/17 02:07:32;;;;;;;72.97;14.98;;;7.80;99.90;;;;;;5035348;28;20043;-89
2021/12/17 02:28:57;;;;;;;53.95;12.80;;;8.00;99.90;;;;;;4974936;28;20058;-90
2021/12/17 02:33:49;;;;;;;52.17;12.75;;;7.80;99.90;;;;;;4975344;28;20110;-91
2021/12/17 02:36:18;;;;;;;49.70;12.35;;;7.80;99.90;;;;;;4975582;28;20125;-90
2021/12/17 02:38:44;;;;;;;49.05;13.27;;;7.80;99.90;;;;;;4975136;28;20050;-89
2021/12/17 02:46:59;;;;;;;54.35;12.63;;;7.80;99.90;;;;;;4917684;28;20139;-90
2021/12/17 02:49:28;;;;;;;87.00;13.77;;;7.80;99.90;;;;;;4917813;29;20083;-90
2021/12/17 02:51:55;;;;;;;92.30;13.60;;;8.00;99.90;;;;;;4917679;29;20495;-90
2021/12/17 02:54:21;;;;;;;63.40;12.73;;;7.80;99.90;;;;;;4917803;29;20064;-91
2021/12/17 02:56:47;;;;;;;79.22;13.45;;;7.80;99.90;;;;;;4918025;29;20068;-90
2021/12/17 02:59:13;;;;;;;93.45;14.52;;;8.00;99.90;;;;;;4917694;29;20044;-91
2021/12/17 03:01:44;;;;;;;90.75;15.05;;;8.00;99.90;;;;;;4953087;28;20533;-90
2021/12/17 03:04:11;;;;;;;106.80;14.18;;;7.80;99.90;;;;;;4944050;28;20055;-90
2021/12/17 03:06:40;;;;;;;95.28;14.55;;;7.80;99.90;;;;;;4959546;28;20043;-90
2021/12/17 03:09:05;;;;;;;72.70;14.23;;;7.80;99.90;;;;;;4943655;28;20066;-90
2021/12/17 03:11:31;;;;;;;97.88;15.15;;;7.90;99.90;;;;;;4959948;28;20061;-90
2021/12/17 03:13:57;;;;;;;87.40;14.23;;;7.90;99.90;;;;;;4948148;28;20055;-89
2021/12/17 03:16:40;;;;;;;113.88;16.00;;;7.90;99.90;;;;;;5015840;28;20078;-90
2021/12/17 03:19:27;;;;;;;99.78;14.38;;;7.80;99.90;;;;;;5015768;28;20436;-91
2021/12/17 03:24:37;;;;;;;79.53;14.98;;;7.80;99.90;;;;;;5015685;28;20488;-90
2021/12/17 03:27:04;;;;;;;79.43;14.85;;;7.80;99.90;;;;;;5016529;28;20057;-90
2021/12/17 03:29:30;;;;;;;80.22;15.02;;;7.90;99.90;;;;;;5038707;28;20056;-91
2021/12/17 03:31:58;;;;;;;72.70;13.35;;;7.90;99.90;;;;;;5038502;28;20067;-90
2021/12/17 03:34:24;;;;;;;97.47;14.63;;;7.80;99.90;;;;;;5021974;28;20049;-90
2021/12/17 03:36:57;;;;;;;92.38;15.27;;;7.90;99.90;;;;;;5038527;28;20139;-90
2021/12/17 03:39:25;;;;;;;93.57;14.43;;;7.90;99.90;;;;;;5037997;28;20053;-90
2021/12/17 03:41:52;;;;;;;112.05;15.15;;;7.80;99.90;;;;;;5054853;28;20056;-90
2021/12/17 03:44:20;;;;;;;77.13;12.88;;;7.90;99.90;;;;;;5038327;28;20049;-91
2021/12/17 03:46:47;;;;;;;68.10;11.95;;;8.00;99.90;;;;;;5038691;28;20044;-90
2021/12/17 03:49:14;;;;;;;93.95;14.13;;;7.80;99.90;;;;;;5038538;28;20075;-90
2021/12/17 03:52:16;;;;;;;69.57;13.30;;;7.80;99.90;;;;;;5038433;28;20055;-90
2021/12/17 03:54:34;;;;;;;74.47;13.82;;;7.90;99.90;;;;;;5033245;28;20057;-90
2021/12/17 03:57:01;;;;;;;88.32;14.07;;;7.80;99.90;;;;;;5038042;28;20078;-90
2021/12/17 03:59:27;;;;;;;89.05;13.15;;;7.80;99.90;;;;;;5038366;28;20517;-90
2021/12/17 04:01:52;;;;;;;94.45;13.65;;;7.90;99.90;;;;;;5038344;28;20037;-91
2021/12/17 04:04:18;;;;;;;110.82;14.07;;;8.00;99.90;;;;;;5038326;28;20060;-91
2021/12/17 04:06:44;;;;;;;80.50;14.38;;;7.80;99.90;;;;;;5021306;28;20438;-90
2021/12/17 04:09:10;;;;;;;98.05;14.98;;;7.80;99.90;;;;;;5037959;28;20056;-90
2021/12/17 04:11:36;;;;;;;108.65;15.48;;;7.80;99.90;;;;;;5038114;28;20053;-91
2021/12/17 04:14:02;;;;;;;111.25;14.27;;;7.90;99.90;;;;;;5037054;28;20069;-91
2021/12/17 04:16:31;;;;;;;86.13;14.98;;;7.90;99.90;;;;;;5037108;28;20053;-90
2021/12/17 04:18:58;;;;;;;101.05;14.93;;;7.80;99.90;;;;;;5037853;28;20406;-90
2021/12/17 04:21:24;;;;;;;91.18;14.75;;;7.80;99.90;;;;;;5037463;28;20136;-90
2021/12/17 04:23:53;;;;;;;102.97;15.63;;;7.90;99.90;;;;;;5037794;28;20094;-91
2021/12/17 04:26:22;;;;;;;103.00;16.27;;;7.80;99.90;;;;;;5037611;28;20049;-90
2021/12/17 04:28:51;;;;;;;81.40;15.52;;;8.00;99.90;;;;;;5033322;28;20494;-90
2021/12/17 04:31:19;;;;;;;117.35;15.43;;;7.80;99.90;;;;;;5037734;28;20083;-90
2021/12/17 04:33:45;;;;;;;132.05;16.98;;;7.80;99.90;;;;;;5037412;28;20095;-91
2021/12/17 04:36:20;;;;;;;128.32;16.10;;;7.80;99.90;;;;;;5037490;28;20494;-90
2021/12/17 04:38:46;;;;;;;141.60;16.55;;;7.80;99.90;;;;;;5037546;28;20049;-92
2021/12/17 04:41:41;;;;;;;97.95;15.90;;;7.80;99.90;;;;;;5036960;28;20411;-92
2021/12/17 04:46:37;;;;;;;147.52;16.48;;;7.80;99.90;;;;;;5037549;28;20052;-91
2021/12/17 04:59:43;;;;;;;120.15;16.40;;;7.70;99.90;;;;;;5037451;28;20056;-92
2021/12/17 05:02:09;;;;;;;91.90;15.00;;;7.70;99.90;;;;;;5037291;28;20620;-91
2021/12/17 05:04:35;;;;;;;94.13;15.93;;;7.70;99.90;;;;;;5037550;28;20052;-92
2021/12/17 05:07:01;;;;;;;112.32;15.57;;;7.80;99.90;;;;;;5037509;28;20049;-92
2021/12/17 05:09:45;;;;;;;119.93;16.60;;;7.70;99.90;;;;;;5020947;28;20044;-92
2021/12/17 05:20:24;;;;;;;116.63;15.63;;;7.80;99.90;;;;;;5037377;28;20056;-92
2021/12/17 05:22:55;;;;;;;123.80;15.00;;;7.80;99.90;;;;;;5036729;28;20503;-92
2021/12/17 05:25:21;;;;;;;;;;;7.80;99.90;;;;;;5037943;28;20056;-92
2021/12/17 05:27:47;;;;;;;111.85;15.23;;;7.80;99.90;;;;;;5053255;28;19936;-92
2021/12/17 05:30:13;;;;;;;155.55;17.30;;;7.80;99.90;;;;;;5036995;28;20052;-92
2021/12/17 05:32:40;;;;;;;133.07;16.20;;;7.70;99.90;;;;;;5036954;28;20064;-92
2021/12/17 05:35:06;;;;;;;182.30;17.50;;;7.70;99.90;;;;;;5053432;28;20118;-92
2021/12/17 05:37:31;;;;;;;193.82;17.88;;;7.70;99.90;;;;;;5037227;28;20041;-92
2021/12/17 05:39:57;;;;;;;136.25;16.60;;;7.80;99.90;;;;;;5036864;28;20504;-92
2021/12/17 05:42:23;;;;;;;88.93;14.68;;;7.90;99.90;;;;;;5020582;28;20053;-92
2021/12/17 05:44:52;;;;;;;133.15;16.10;;;7.70;99.90;;;;;;5037021;28;20148;-93
2021/12/17 05:47:18;;;;;;;125.22;16.02;;;7.70;99.90;;;;;;5020456;28;20045;-93
2021/12/17 05:49:44;;;;;;;105.20;15.70;;;7.80;99.90;;;;;;5020574;28;20080;-93
2021/12/17 05:52:09;;;;;;;109.90;16.00;;;7.70;99.90;;;;;;5036784;28;20465;-92
2021/12/17 05:54:35;;;;;;;175.02;17.55;;;7.80;99.90;;;;;;5036388;28;20045;-92
2021/12/17 05:57:01;;;;;;;100.93;15.23;;;7.80;99.90;;;;;;5020312;28;20102;-92
2021/12/17 05:59:33;;;;;;;81.97;13.55;;;7.70;99.90;;;;;;5020078;28;20041;-92
2021/12/17 06:02:01;;;;;;;139.10;17.08;;;7.70;99.90;;;;;;5019848;28;20414;-92
2021/12/17 06:04:26;;;;;;;206.10;21.77;;;7.70;99.90;;;;;;5036401;28;20151;-93
2021/12/17 06:06:52;;;;;;;101.70;15.77;;;7.80;99.90;;;;;;5036265;28;20128;-92
2021/12/17 06:09:18;;;;;;;132.95;16.90;;;7.70;99.90;;;;;;5036012;28;20406;-93
2021/12/17 06:11:43;;;;;;;164.88;16.38;;;7.80;99.90;;;;;;5036193;28;20098;-92
2021/12/17 06:14:09;;;;;;;129.25;16.33;;;7.70;99.90;;;;;;5019991;28;20516;-92
2021/12/17 06:16:35;;;;;;;159.07;17.17;;;7.70;99.90;;;;;;5035961;28;20071;-91
2021/12/17 06:19:02;;;;;;;127.22;16.52;;;7.70;99.90;;;;;;5019831;28;20090;-91
2021/12/17 06:21:28;;;;;;;147.68;16.58;;;7.70;99.90;;;;;;5036144;28;20056;-92
2021/12/17 06:23:54;;;;;;;176.60;17.30;;;7.70;99.90;;;;;;5019634;28;20041;-91
2021/12/17 06:26:20;;;;;;;126.88;16.27;;;7.70;99.90;;;;;;5035462;28;20053;-92
2021/12/17 06:28:49;;;;;;;156.13;16.45;;;7.70;99.90;;;;;;5035983;28;20057;-92
2021/12/17 06:31:19;;;;;;;118.65;16.23;;;7.70;99.90;;;;;;5016184;28;20045;-91
2021/12/17 06:33:49;;;;;;;158.50;17.80;;;7.70;99.90;;;;;;5031416;28;20044;-92
2021/12/17 06:36:14;;;;;;;140.07;17.23;;;7.90;99.90;;;;;;5035437;28;20376;-92
2021/12/17 06:38:40;;;;;;;109.50;16.50;;;7.70;99.90;;;;;;5035213;28;20194;-92
2021/12/17 06:41:06;;;;;;;99.28;15.23;;;7.90;99.90;;;;;;5019428;28;20487;-91
2021/12/17 06:43:40;;;;;;;121.30;16.38;;;7.70;99.90;;;;;;5019377;28;20044;-91
2021/12/17 06:48:57;;;;;;;236.55;19.60;;;7.70;99.90;;;;;;5034919;28;20081;-92
2021/12/17 06:54:49;;;;;;;134.63;16.85;;;7.70;99.90;;;;;;5036041;28;20140;-91
2021/12/17 07:10:45;;;;;;;151.25;17.67;;;7.60;99.90;;;;;;5030259;28;20407;-91
2021/12/17 07:21:57;;;;;;;167.73;17.73;;;7.60;99.90;;;;;;4954350;28;20158;-91
2021/12/17 07:28:42;;;;;;;103.43;15.30;;;7.60;99.90;;;;;;4972441;28;20120;-91
2021/12/17 07:33:44;;;;;;;116.43;15.98;;;7.50;99.90;;;;;;4956486;28;20157;-92
2021/12/17 07:36:13;;;;;;;156.50;17.20;;;7.40;99.90;;;;;;4943598;29;20055;-91
2021/12/17 07:42:19;;;;;;;116.70;15.98;;;7.40;99.90;;;;;;4972030;28;20419;-91
2021/12/17 07:44:45;;;;;;;91.05;15.05;;;7.40;99.90;;;;;;4956080;28;20062;-92
2021/12/17 07:47:10;;;;;;;84.45;14.43;;;7.60;99.90;;;;;;4954277;28;20171;-91
2021/12/17 07:49:36;;;;;;;96.85;15.10;;;7.30;99.90;;;;;;4924900;29;20043;-91
2021/12/17 07:52:02;;;;;;;72.03;13.65;;;7.50;99.90;;;;;;4940669;29;20056;-91
2021/12/17 07:58:08;;;;;;;66.00;13.32;;;7.60;99.90;;;;;;5005902;28;20096;-91
2021/12/17 08:00:34;;;;;;;68.15;13.50;;;7.60;99.90;;;;;;5054986;28;20056;-91
2021/12/17 08:03:00;;;;;;;80.43;13.63;;;7.60;99.90;;;;;;5022251;28;20057;-91
2021/12/17 08:05:27;;;;;;;57.53;13.05;;;7.60;99.90;;;;;;5038771;28;20052;-90
2021/12/17 08:07:53;;;;;;;70.57;14.18;;;7.70;99.90;;;;;;5038349;28;20133;-90
2021/12/17 08:10:19;;;;;;;73.55;13.55;;;7.70;99.90;;;;;;5038398;28;20099;-91
2021/12/17 08:12:44;;;;;;;97.20;15.32;;;7.70;99.90;;;;;;5038116;28;20041;-91
2021/12/17 08:15:12;;;;;;;71.88;14.57;;;7.80;99.90;;;;;;5038141;28;20064;-90
2021/12/17 08:17:52;;;;;;;77.88;13.75;;;7.70;99.90;;;;;;5038149;28;20578;-91
2021/12/17 08:28:29;;;;;;;88.70;15.10;;;7.90;99.90;;;;;;5026512;28;20130;-91
2021/12/17 08:30:55;;;;;;;76.57;13.70;;;7.80;99.90;;;;;;5001309;28;20053;-90
2021/12/17 08:33:21;;;;;;;112.05;15.15;;;7.80;99.90;;;;;;5001866;28;20057;-91
2021/12/17 08:35:47;;;;;;;68.97;14.60;;;7.80;99.90;;;;;;5001828;28;20404;-91
2021/12/17 08:38:14;;;;;;;76.05;14.27;;;7.80;99.90;;;;;;5018153;28;20044;-91
2021/12/17 08:40:39;;;;;;;77.75;14.60;;;7.90;99.90;;;;;;5001557;28;20223;-91
2021/12/17 08:43:05;;;;;;;85.47;16.00;;;8.00;99.90;;;;;;5018255;28;20132;-91
2021/12/17 08:45:32;;;;;;;77.90;14.88;;;7.90;99.90;;;;;;5018096;28;20403;-90
2021/12/17 08:47:59;;;;;;;90.50;15.70;;;8.00;99.90;;;;;;5018007;28;20083;-91
2021/12/17 08:50:25;;;;;;;103.32;16.00;;;7.90;99.90;;;;;;5018033;28;20499;-91
2021/12/17 08:52:51;;;;;;;58.00;14.13;;;8.00;99.90;;;;;;5017551;28;20052;-91
2021/12/17 08:55:19;;;;;;;72.57;15.05;;;7.90;99.90;;;;;;5017757;28;20045;-91
2021/12/17 08:57:45;;;;;;;74.00;15.00;;;8.00;99.90;;;;;;5017964;28;20491;-92
2021/12/17 09:00:12;;;;;;;85.10;15.35;;;8.00;99.90;;;;;;5017188;28;20060;-91
2021/12/17 09:02:41;;;;;;;63.25;15.55;;;8.00;99.90;;;;;;5017841;28;20084;-91
2021/12/17 09:05:08;;;;;;;59.42;14.98;;;8.00;99.90;;;;;;5017565;28;20380;-92
2021/12/17 09:07:33;;;;;;;63.58;14.73;;;8.00;99.90;;;;;;5017274;28;20048;-91
2021/12/17 09:10:03;;;;;;;61.40;15.55;;;8.00;99.90;;;;;;5017314;28;20045;-91
2021/12/17 09:12:28;;;;;;;60.30;14.18;;;8.10;99.90;;;;;;5017489;28;20106;-91
2021/12/17 09:14:54;;;;;;;79.78;16.13;;;8.00;99.90;;;;;;5017644;28;20128;-91
2021/12/17 09:17:21;;;;;;;77.30;14.68;;;8.10;99.90;;;;;;5017163;28;20057;-94
2021/12/17 09:19:47;;;;;;;84.10;15.32;;;8.20;99.90;;;;;;5017592;28;20087;-90
2021/12/17 09:22:13;;;;;;;61.03;14.70;;;8.20;99.90;;;;;;5017463;28;20142;-91
2021/12/17 09:24:39;;;;;;;65.57;13.95;;;8.10;99.90;;;;;;5016863;28;20049;-91
2021/12/17 09:27:07;;;;;;;57.47;14.18;;;8.10;99.90;;;;;;5017216;28;20128;-91
2021/12/17 09:29:32;;;;;;;52.75;14.30;;;8.20;99.90;;;;;;4997242;28;20057;-91
2021/12/17 09:31:58;;;;;;;44.72;12.73;;;8.10;99.90;;;;;;5033260;28;20050;-90
2021/12/17 09:34:24;;;;;;;65.05;14.35;;;8.20;99.90;;;;;;5017209;28;20068;-91
2021/12/17 09:36:50;;;;;;;46.10;13.15;;;8.20;99.90;;;;;;5017287;28;20080;-91
2021/12/17 09:39:17;;;;;;;52.80;14.35;;;8.30;99.90;;;;;;5016525;28;20081;-90
2021/12/17 09:41:46;;;;;;;46.67;13.43;;;8.50;99.90;;;;;;5017002;28;20045;-91
2021/12/17 09:44:15;;;;;;;50.35;14.00;;;8.40;99.90;;;;;;5000462;28;20139;-91
2021/12/17 09:46:43;;;;;;;43.85;13.10;;;8.30;99.90;;;;;;5016807;28;20438;-91
2021/12/17 09:49:11;;;;;;;42.88;12.93;;;8.40;99.90;;;;;;5000509;28;20668;-92
2021/12/17 09:51:37;;;;;;;46.95;13.50;;;8.40;99.90;;;;;;5000239;28;20045;-92
2021/12/17 09:54:03;;;;;;;51.50;14.32;;;8.40;99.90;;;;;;5016559;28;20099;-92
2021/12/17 09:56:29;;;;;;;42.92;13.13;;;8.40;99.90;;;;;;5016979;28;20073;-91
2021/12/17 09:58:56;;;;;;;40.60;13.38;;;8.40;99.90;;;;;;5016457;28;20072;-91
2021/12/17 10:01:21;;;;;;;46.28;13.88;;;8.50;99.90;;;;;;5016427;28;20046;-92
2021/12/17 10:04:07;;;;;;;52.25;13.20;;;8.40;99.90;;;;;;5016435;28;20049;-90
2021/12/17 10:06:32;;;;;;;44.70;13.43;;;8.50;99.90;;;;;;4999550;28;20199;-92
2021/12/17 10:08:58;;;;;;;43.65;13.95;;;8.50;99.90;;;;;;5016179;28;20503;-91
2021/12/17 10:11:25;;;;;;;42.78;14.07;;;8.70;99.90;;;;;;5015667;28;20045;-91
2021/12/17 10:13:50;;;;;;;36.33;13.40;;;8.70;99.90;;;;;;5016509;28;20106;-92
2021/12/17 10:16:20;;;;;;;50.80;13.90;;;8.50;99.90;;;;;;5016082;28;20128;-92
2021/12/17 10:18:50;;;;;;;44.85;13.20;;;8.50;99.90;;;;;;4999899;28;20045;-92
2021/12/17 10:21:26;;;;;;;38.65;13.15;;;8.60;99.90;;;;;;4999767;28;20042;-92
2021/12/17 10:23:54;;;;;;;35.22;12.98;;;8.70;99.90;;;;;;4999558;28;20049;-92
2021/12/17 10:26:22;;;;;;;34.13;13.10;;;8.70;99.90;;;;;;5016349;28;20057;-92
2021/12/17 10:28:59;;;;;;;38.00;13.20;;;8.70;99.90;;;;;;5008656;28;20057;-92
2021/12/17 10:31:26;;;;;;;33.38;13.60;;;8.70;99.90;;;;;;5019432;28;20135;-91
2021/12/17 10:33:59;;;;;;;35.60;14.23;;;8.80;99.90;;;;;;5035612;28;20402;-91
2021/12/17 10:36:37;;;;;;;36.13;14.75;;;8.80;99.90;;;;;;5019624;28;20037;-93
2021/12/17 10:39:04;;;;;;;39.63;14.98;;;8.90;99.90;;;;;;5019210;28;20057;-91
2021/12/17 10:41:31;;;;;;;31.30;13.77;;;8.90;99.90;;;;;;5035777;28;20084;-90
2021/12/17 10:44:07;;;;;;;33.83;13.88;;;8.80;99.90;;;;;;5035781;28;20049;-91
2021/12/17 10:46:44;;;;;;;34.58;13.75;;;8.60;99.90;;;;;;5035777;28;20040;-92
2021/12/17 10:54:10;;;;;;;32.25;13.93;;;8.80;99.90;;;;;;5052204;28;20088;-91
2021/12/17 10:56:51;;;;;;;29.60;13.07;;;8.80;99.90;;;;;;5035749;28;20052;-91
2021/12/17 10:59:22;;;;;;;29.73;13.02;;;8.80;99.90;;;;;;5019376;28;20049;-92
2021/12/17 11:01:59;;;;;;;30.95;12.90;;;8.90;99.90;;;;;;5035496;28;20052;-92
2021/12/17 11:04:28;;;;;;;28.40;12.70;;;8.90;99.90;;;;;;5018996;28;20056;-92
2021/12/17 11:07:03;;;;;;;31.48;13.85;;;8.90;99.90;;;;;;5018954;28;20049;-92
2021/12/17 11:10:00;;;;;;;31.13;13.57;;;8.90;99.90;;;;;;5035181;28;20041;-92
2021/12/17 11:12:31;;;;;;;27.17;11.93;;;9.00;99.90;;;;;;5019131;28;20406;-91
2021/12/17 11:15:20;;;;;;;24.95;11.88;;;9.00;99.90;;;;;;5035578;28;20140;-92
2021/12/17 11:17:52;;;;;;;28.80;12.65;;;9.00;99.90;;;;;;5018783;28;20045;-91
2021/12/17 11:20:25;;;;;;;29.23;11.30;;;9.00;99.90;;;;;;5018843;28;20041;-92
2021/12/17 11:22:53;;;;;;;27.13;11.20;;;9.00;99.90;;;;;;5037504;28;20049;-93
2021/12/17 11:25:20;;;;;;;24.17;11.40;;;9.10;99.90;;;;;;5022852;28;20428;-91
2021/12/17 11:27:47;;;;;;;21.58;10.90;;;9.20;99.90;;;;;;5038605;28;20525;-92
2021/12/17 11:30:20;;;;;;;22.38;10.77;;;9.10;99.90;;;;;;5039209;28;20061;-91
2021/12/17 11:32:47;;;;;;;22.73;10.55;;;9.10;99.90;;;;;;5038930;28;20049;-92
2021/12/17 11:35:15;;;;;;;25.50;11.00;;;9.20;99.90;;;;;;5039345;28;20383;-91
2021/12/17 11:38:02;;;;;;;19.52;9.95;;;9.20;99.90;;;;;;5022663;28;20443;-92
2021/12/17 11:40:59;;;;;;;18.38;9.30;;;9.30;99.90;;;;;;5022437;28;20048;-91
2021/12/17 11:43:50;;;;;;;17.92;9.20;;;9.30;99.90;;;;;;4978617;28;20097;-92
2021/12/17 11:46:21;;;;;;;18.40;9.35;;;9.30;99.90;;;;;;4959674;28;20046;-91
2021/12/17 11:48:53;;;;;;;18.70;9.40;;;9.30;99.90;;;;;;4976807;28;20603;-91
2021/12/17 11:51:23;;;;;;;18.52;9.32;;;9.40;99.90;;;;;;4978644;28;20516;-91
2021/12/17 11:53:52;;;;;;;19.38;8.88;;;9.40;99.90;;;;;;4978668;28;20125;-90
2021/12/17 11:56:33;;;;;;;16.20;8.80;;;9.50;99.90;;;;;;4962568;28;20156;-91
2021/12/17 11:58:59;;;;;;;18.50;9.35;;;9.40;99.90;;;;;;4978677;28;20058;-91
2021/12/17 12:01:49;;;;;;;18.88;8.80;;;9.50;99.90;;;;;;4978747;28;20082;-92
2021/12/17 12:04:45;;;;;;;18.80;9.07;;;9.50;99.90;;;;;;4939551;29;20122;-90
2021/12/17 12:07:19;;;;;;;17.90;9.48;;;9.50;99.90;;;;;;4938957;29;20059;-91
2021/12/17 12:09:59;;;;;;;20.25;10.30;;;9.40;99.90;;;;;;4939835;29;20072;-90
2021/12/17 12:12:30;;;;;;;21.50;9.90;;;9.40;99.90;;;;;;4939501;29;20051;-91
2021/12/17 12:15:25;;;;;;;25.48;10.35;;;9.40;99.90;;;;;;4939929;29;20286;-91
2021/12/17 12:18:39;;;;;;;23.20;10.23;;;9.30;99.90;;;;;;4939816;29;20548;-89
2021/12/17 12:21:05;;;;;;;21.38;9.93;;;9.40;99.90;;;;;;4891512;29;20052;-91
2021/12/17 12:23:30;;;;;;;23.17;9.85;;;9.50;99.90;;;;;;4886323;29;20410;-91
2021/12/17 12:26:05;;;;;;;21.40;10.18;;;9.60;99.90;;;;;;4917284;29;20157;-91
2021/12/17 12:28:48;;;;;;;21.95;9.95;;;9.70;99.90;;;;;;4916909;29;20055;-91
2021/12/17 12:31:17;;;;;;;20.63;9.70;;;9.60;99.90;;;;;;4917670;29;20044;-91
2021/12/17 12:34:01;;;;;;;19.17;9.07;;;9.60;99.90;;;;;;4916258;29;20075;-91
2021/12/17 12:37:04;;;;;;;25.40;9.48;;;9.60;99.90;;;;;;4917332;29;20067;-91
2021/12/17 12:39:41;;;;;;;25.02;10.18;;;9.60;99.90;;;;;;4916845;29;20074;-92
2021/12/17 12:42:12;;;;;;;22.45;9.93;;;9.60;99.90;;;;;;4949068;29;20063;-92
2021/12/17 12:44:43;;;;;;;24.85;9.82;;;9.60;99.90;;;;;;4955261;29;20059;-91
2021/12/17 12:47:15;;;;;;;;;;;9.60;99.90;;;;;;4923771;29;20065;-91
2021/12/17 12:49:50;;;;;;;24.83;9.10;;;9.50;99.90;;;;;;4942738;28;20354;-92
2021/12/17 12:52:31;;;;;;;24.65;9.60;;;9.50;99.90;;;;;;4997732;28;20063;-93
2021/12/17 12:55:10;;;;;;;29.17;9.82;;;9.50;99.90;;;;;;5020477;28;20148;-92
2021/12/17 12:57:40;;;;;;;27.38;9.38;;;9.40;99.90;;;;;;5037334;28;20045;-91
2021/12/17 13:00:09;;;;;;;25.42;10.20;;;9.40;99.90;;;;;;5037466;28;20091;-91
2021/12/17 13:02:35;;;;;;;33.30;9.77;;;9.40;99.90;;;;;;5020666;28;20053;-92
2021/12/17 13:05:03;;;;;;;26.33;9.48;;;9.40;99.90;;;;;;5037249;28;20406;-92
2021/12/17 13:07:36;;;;;;;31.20;10.30;;;9.40;99.90;;;;;;5020997;28;20102;-91
2021/12/17 13:10:21;;;;;;;28.92;10.15;;;9.50;99.90;;;;;;5037266;28;20037;-92
2021/12/17 13:12:55;;;;;;;30.02;11.32;;;9.40;99.90;;;;;;5037167;28;20055;-94
2021/12/17 13:21:04;;;;;;;30.05;11.00;;;9.40;99.90;;;;;;5054045;28;20053;-92
2021/12/17 13:23:36;;;;;;;29.77;11.02;;;9.40;99.90;;;;;;5019949;28;20115;-92
2021/12/17 13:26:11;;;;;;;24.77;11.00;;;9.40;99.90;;;;;;5020461;28;20051;-92
2021/12/17 13:28:51;;;;;;;41.05;13.68;;;9.40;99.90;;;;;;5020001;28;20055;-91
2021/12/17 13:31:48;;;;;;;26.40;10.68;;;9.40;99.90;;;;;;5036622;28;20088;-93
2021/12/17 13:34:31;;;;;;;26.75;10.27;;;9.40;99.90;;;;;;5020412;28;20044;-92
2021/12/17 13:37:08;;;;;;;39.20;13.13;;;9.40;99.90;;;;;;5037022;28;20045;-92
2021/12/17 13:39:39;;;;;;;28.70;11.13;;;9.40;99.90;;;;;;5020081;28;20118;-90
2021/12/17 13:42:05;;;;;;;;;;;9.40;99.90;;;;;;5020974;28;20194;-91
2021/12/17 13:44:35;;;;;;;27.55;11.05;;;9.40;99.90;;;;;;5019955;28;19978;-91
2021/12/17 13:47:07;;;;;;;24.27;10.50;;;9.40;99.90;;;;;;5036600;28;20037;-91
2021/12/17 13:49:33;;;;;;;20.75;9.95;;;9.50;99.90;;;;;;5036876;28;20068;-91
2021/12/17 13:51:59;;;;;;;25.23;9.65;;;9.30;99.90;;;;;;5036498;28;20486;-91
2021/12/17 13:54:24;;;;;;;24.88;9.48;;;9.40;99.90;;;;;;5036571;28;20502;-91
2021/12/17 13:56:58;;;;;;;24.73;9.68;;;9.30;99.90;;;;;;5036295;28;20041;-92
2021/12/17 13:59:35;;;;;;;22.80;9.63;;;9.30;99.90;;;;;;5036497;28;20037;-92
2021/12/17 14:02:32;;;;;;;23.98;10.48;;;9.40;99.90;;;;;;5036311;28;20084;-92
2021/12/17 14:05:21;;;;;;;14.80;7.07;;;9.30;99.90;;;;;;5019071;28;20060;-92
2021/12/17 14:07:51;;;;;;;14.73;7.57;;;9.30;99.90;;;;;;5019955;28;20052;-91
2021/12/17 14:10:30;;;;;;;27.30;11.38;;;9.20;99.90;;;;;;5020036;28;20045;-92
2021/12/17 14:12:56;;;;;;;27.33;10.73;;;9.20;99.90;;;;;;5019819;28;20103;-92
2021/12/17 14:15:27;;;;;;;32.25;10.63;;;9.20;99.90;;;;;;5020117;28;20084;-91
2021/12/17 14:17:54;;;;;;;;;;;9.20;99.90;;;;;;5020170;28;20053;-92
2021/12/17 14:20:22;;;;;;;31.38;10.77;;;9.20;99.90;;;;;;5036334;28;20452;-92
2021/12/17 14:22:55;;;;;;;36.25;12.68;;;9.40;99.90;;;;;;5019601;28;20049;-92
2021/12/17 14:25:27;;;;;;;23.20;10.07;;;9.30;99.90;;;;;;5020452;28;20049;-92
2021/12/17 14:27:57;;;;;;;26.58;9.65;;;9.20;99.90;;;;;;5019914;28;20384;-92
2021/12/17 14:30:33;;;;;;;20.27;8.70;;;9.30;99.90;;;;;;5036091;28;20132;-93
2021/12/17 14:33:30;;;;;;;19.98;8.20;;;9.20;99.90;;;;;;5019991;28;20045;-92
2021/12/17 14:36:10;;;;;;;14.38;6.40;;;9.10;99.90;;;;;;5019200;28;20089;-92
2021/12/17 14:38:53;;;;;;;8.52;4.55;;;9.20;99.90;;;;;;5036166;28;20041;-92
2021/12/17 14:41:25;;;;;;;9.77;4.05;;;9.10;99.90;;;;;;5020523;28;20082;-94
2021/12/17 14:44:04;;;;;;;6.53;3.90;;;9.10;99.90;;;;;;5035798;28;20394;-92
2021/12/17 14:46:56;;;;;;;9.43;4.78;;;9.10;99.90;;;;;;5019656;28;20055;-92
2021/12/17 15:00:48;;;;;;;12.13;4.95;;;9.00;99.90;;;;;;5040022;28;20409;-93
2021/12/17 15:05:44;;;;;;;15.75;5.90;;;9.00;99.90;;;;;;5056547;28;20055;-92
2021/12/17 15:08:10;;;;;;;15.68;6.57;;;9.00;99.90;;;;;;5039821;28;20478;-92
2021/12/17 15:10:36;;;;;;;14.23;6.60;;;9.00;99.90;;;;;;5039610;28;20048;-92
2021/12/17 15:13:02;;;;;;;16.33;6.47;;;9.00;99.90;;;;;;5039806;28;20089;-93
2021/12/17 15:15:35;;;;;;;18.90;7.57;;;9.20;99.90;;;;;;5023223;28;20049;-92
2021/12/17 15:18:09;;;;;;;14.38;6.63;;;9.00;99.90;;;;;;5023398;28;20045;-93
2021/12/17 15:20:36;;;;;;;16.55;6.60;;;9.00;99.90;;;;;;5023470;28;20083;-92
2021/12/17 15:23:04;;;;;;;15.13;6.55;;;8.90;99.90;;;;;;5023511;28;20053;-92
2021/12/17 15:25:31;;;;;;;19.50;7.28;;;8.90;99.90;;;;;;5039566;28;20052;-93
2021/12/17 15:27:57;;;;;;;15.18;6.53;;;9.00;99.90;;;;;;5039126;28;20487;-92
2021/12/17 15:30:26;;;;;;;17.00;6.82;;;8.90;99.90;;;;;;5039392;28;20128;-92
2021/12/17 15:32:52;;;;;;;17.77;7.03;;;9.00;99.90;;;;;;5023254;28;20049;-92
2021/12/17 15:35:20;;;;;;;19.40;6.85;;;8.90;99.90;;;;;;5023095;28;20052;-92
2021/12/17 15:37:49;;;;;;;14.07;6.50;;;8.90;99.90;;;;;;5022397;28;20092;-92
2021/12/17 15:40:17;;;;;;;14.90;6.30;;;8.90;99.90;;;;;;5022587;28;20048;-92
2021/12/17 15:42:43;;;;;;;18.42;5.85;;;8.90;99.90;;;;;;5039190;28;20047;-92
2021/12/17 15:45:09;;;;;;;15.57;5.90;;;8.90;99.90;;;;;;5023118;28;20041;-92
2021/12/17 15:47:36;;;;;;;12.30;5.90;;;8.70;99.90;;;;;;5022880;28;20045;-92
2021/12/17 15:50:05;;;;;;;13.60;6.00;;;8.80;99.90;;;;;;5021994;28;20125;-92
2021/12/17 15:52:33;;;;;;;10.43;5.32;;;8.80;99.90;;;;;;5039216;28;20063;-92
2021/12/17 15:55:21;;;;;;;11.85;6.68;;;8.80;99.90;;;;;;5024518;28;20076;-93
2021/12/17 15:57:48;;;;;;;16.42;6.93;;;8.80;99.90;;;;;;5023269;28;20041;-92
2021/12/17 16:00:16;;;;;;;14.35;7.50;;;9.00;99.90;;;;;;5039756;28;20048;-92
2021/12/17 16:02:43;;;;;;;14.00;7.10;;;8.80;99.90;;;;;;5022733;28;20124;-92